Etusivu
METAR-TAF:

METAR-TAF

Lentoasemat :

Fresno, Kalifornia, Yhdysvallat

Leveyspiiri: 36-43-56N, Pituuspiiri: 119-49-13W, korkeus merenpinnasta: 85 m

Tämänhetkinen sää

Tämä raportti tehtiin 25 minuuttia sitten, kello 19.10 UTC
tyyntä
Lämpötila 9°C
Kosteus 87%
Ilmanpaine 1015 hPa
Näkyvyys: 4.8 km
Hajonneita pilviä 2700 ft:n korkeudessa
Hajonneita pilviä 3200 ft:n korkeudessa
Hajonneita pilviä 3800 ft:n korkeudessa
utua

METAR: KFCH 021910Z AUTO 00000KT 3SM BR BKN027 BKN032 BKN038 09/07 A2998 RMK A01

Aika: 11:35 (19:35 UTC)


TAF: puuttuu

Säähavainnot ja -ennusteet yli 4000 lentoasemalta (METAR- ja TAF-raportit).

Käytössä olevat sääasemat on merkitty karttaan keltaisilla ja punaisilla pisteillä.

Aseta hiiri pisteen päälle nähdäksesi sääaseman nimen.

Klikkaa sitten nähdäksesi säähavainnot ja -ennusteet.

Kartan vaihtaminen: klikkaa mustalla rastilla varustettuja vihreitä pisteitä, niin voit zoomata sisään; viivalla varustettua vihreää pistettä, niin voit zoomata ulos tai vihreitä nuolia, niin pääset viereisille kartoille.


METAR-TAF: